Maverick Dos — EAMO — position and weather

sailwx.info

Track history (hours):
 
Tides and Currents Weather Stations Pressure Air Temp Water Temp Dewpoint Dewpoint Depression Visibility Wind Speed Wind Dir Waves Ship Positions

Maverick Dos

Last reported at 2017-Dec-10 17:23 UTC. Time now 2017-Dec-14 15:01 UTC.
Position N 38°49' E 001°25'.

Length 39 m; draft 1.6 m.

Type: Ship. MMSI: 225392000.

Date/timePositionNaut miles runAvg speedWind from/ knotsBaromVisibWave heightAir tempDewpointWater temp
2017-Dec-10 17:23N 38°49' E 001°25'612.4
2017-Dec-10 16:55N 38°55' E 001°26'2 4.4
2017-Dec-10 16:26N 38°53' E 001°27'4 2.6
2017-Dec-10 14:52N 38°49' E 001°25'6 4.2
2017-Dec-10 13:27N 38°55' E 001°26'0 0.0
2017-Dec-10 12:47N 38°55' E 001°26'0 0.0
2017-Dec-10 12:28N 38°55' E 001°26'1 2.2
2017-Dec-10 11:58N 38°54' E 001°27'5 1.3
2017-Dec-10 08:21N 38°49' E 001°25'6 7.0
2017-Dec-10 07:33N 38°55' E 001°26'0 0.0
2017-Dec-09 18:48N 38°55' E 001°26'6 4.5
2017-Dec-09 17:22N 38°49' E 001°25'616.8
2017-Dec-09 16:59N 38°55' E 001°26'1 1.2
2017-Dec-09 16:30N 38°54' E 001°27'5 3.2
2017-Dec-09 14:50N 38°49' E 001°25'515.9
2017-Dec-09 14:30N 38°55' E 001°26'0 0.0
2017-Dec-09 13:58N 38°55' E 001°26'0 0.0
2017-Dec-09 13:28N 38°55' E 001°26'0 0.0
2017-Dec-09 13:00N 38°55' E 001°26'0 0.0
2017-Dec-09 12:30N 38°55' E 001°26'1 2.2
2017-Dec-09 11:57N 38°53' E 001°27'6 1.8
2017-Dec-09 08:25N 38°47' E 001°25'717.6
2017-Dec-09 08:00N 38°55' E 001°26'0 0.0
2017-Dec-09 07:29N 38°55' E 001°26'0 0.0
2017-Dec-09 06:59N 38°55' E 001°26'5 8.0
2017-Dec-09 06:20N 38°49' E 001°26'4 0.4
2017-Dec-08 19:42N 38°53' E 001°27'1 3.0
2017-Dec-08 19:14N 38°55' E 001°26'6 3.0
2017-Dec-08 17:20N 38°49' E 001°25'6 9.6
2017-Dec-08 16:46N 38°55' E 001°26'2 6.2
2017-Dec-08 16:27N 38°53' E 001°27'4 2.6
2017-Dec-08 14:52N 38°49' E 001°25'614.8
2017-Dec-08 14:29N 38°55' E 001°26'0 0.0
2017-Dec-08 13:46N 38°55' E 001°26'0 0.0
2017-Dec-08 12:34N 38°55' E 001°26'0 0.0
2017-Dec-08 12:13N 38°55' E 001°26'8 2.3
2017-Dec-08 08:30N 38°46' E 001°25'8 6.2
2017-Dec-08 07:09N 38°55' E 001°26'0 0.6
2017-Dec-08 06:45N 38°55' E 001°26'7 0.7
2017-Dec-07 19:25N 38°47' E 001°25'716.5
2017-Dec-07 18:58N 38°55' E 001°26'4 6.2
2017-Dec-07 18:20N 38°51' E 001°26'5 6.5
2017-Dec-07 17:32N 38°46' E 001°25'125.0
2017-Dec-07 17:29N 38°46' E 001°24'816.3
2017-Dec-07 16:59N 38°55' E 001°26'2 3.7
2017-Dec-07 16:27N 38°53' E 001°27'5 3.5
2017-Dec-07 14:57N 38°48' E 001°25'714.7
2017-Dec-07 14:29N 38°55' E 001°26'0 0.0
2017-Dec-07 13:58N 38°55' E 001°26'0 0.0
2017-Dec-07 13:29N 38°55' E 001°26'0 0.0
2017-Dec-07 12:58N 38°55' E 001°26'0 0.0
2017-Dec-07 12:27N 38°55' E 001°26'1 2.4
2017-Dec-07 11:58N 38°54' E 001°27'9 2.7
2017-Dec-07 08:32N 38°44' E 001°25'425.7
2017-Dec-07 08:23N 38°48' E 001°25'716.6
2017-Dec-07 07:59N 38°55' E 001°26'0 0.0
2017-Dec-07 07:29N 38°55' E 001°26'0 0.5
2017-Dec-07 06:59N 38°55' E 001°26'5 7.0
2017-Dec-07 06:19N 38°50' E 001°26'  
2017-Dec-04 08:11N 38°53' E 001°27'1 1.4
2017-Dec-04 07:18N 38°55' E 001°26'0 0.0
2017-Dec-03 19:26N 38°55' E 001°26'5 2.2
2017-Dec-03 17:20N 38°50' E 001°25'513.3
2017-Dec-03 16:59N 38°55' E 001°26'1 1.1
2017-Dec-03 16:30N 38°54' E 001°27'2 1.2
2017-Dec-03 14:44N 38°52' E 001°26'2 9.1
2017-Dec-03 14:29N 38°55' E 001°26'0 0.0
2017-Dec-03 14:00N 38°55' E 001°26'0 0.0
2017-Dec-03 13:29N 38°55' E 001°26'0 0.0
2017-Dec-03 12:56N 38°55' E 001°26'0 0.0
2017-Dec-03 12:30N 38°55' E 001°26'1 2.4
2017-Dec-03 11:59N 38°53' E 001°27'5 1.5
2017-Dec-03 08:21N 38°48' E 001°25'617.3
2017-Dec-03 07:59N 38°55' E 001°26'0 0.0
2017-Dec-03 07:29N 38°55' E 001°26'0 0.0
2017-Dec-03 07:00N 38°55' E 001°26'6 0.5
2017-Dec-02 19:29N 38°49' E 001°25'610.5
2017-Dec-02 18:52N 38°55' E 001°26'7 4.6
2017-Dec-02 17:22N 38°48' E 001°25'717.1
2017-Dec-02 16:58N 38°55' E 001°26'2 3.2
2017-Dec-02 16:27N 38°53' E 001°26'5 3.0
2017-Dec-02 14:53N 38°48' E 001°25'616.1
2017-Dec-02 14:29N 38°55' E 001°26'0 0.0
2017-Dec-02 13:59N 38°55' E 001°26'0 0.0
2017-Dec-02 13:28N 38°55' E 001°26'0 0.0
2017-Dec-02 13:00N 38°55' E 001°26'0 0.0
2017-Dec-02 12:29N 38°55' E 001°26'1 1.6
2017-Dec-02 12:00N 38°54' E 001°27'10 2.9
2017-Dec-02 08:37N 38°44' E 001°25'519.5
2017-Dec-02 08:22N 38°49' E 001°25'613.5
2017-Dec-02 07:56N 38°55' E 001°26'0 0.0
2017-Dec-02 07:28N 38°55' E 001°26'0 0.0
2017-Dec-02 06:59N 38°55' E 001°26'2 3.9
2017-Dec-02 06:25N 38°53' E 001°25'3 0.3
2017-Dec-01 17:58N 38°49' E 001°25'5 6.7
2017-Dec-01 17:10N 38°55' E 001°26'0 1.0
2017-Dec-01 17:00N 38°55' E 001°26'3 5.3
2017-Dec-01 16:24N 38°52' E 001°25'2 1.5
2017-Dec-01 14:50N 38°49' E 001°25'4 1.5
2017-Dec-01 11:59N 38°54' E 001°27'4 1.2
2017-Dec-01 08:21N 38°49' E 001°25'5 3.3
2017-Dec-01 06:43N 38°55' E 001°26'7 0.6
2017-Nov-30 19:23N 38°48' E 001°25'716.1
2017-Nov-30 18:59N 38°55' E 001°26'1 1.1
2017-Nov-30 18:30N 38°54' E 001°27'  
Track history (hours):
 
Tides and Currents Weather Stations Pressure Air Temp Water Temp Dewpoint Dewpoint Depression Visibility Wind Speed Wind Dir Waves Ship Positions

Maverick Dos

Last reported at 2017-Dec-10 17:23 UTC. Time now 2017-Dec-14 15:01 UTC.
Position N 38°49' E 001°25'.

Length 39 m; draft 1.6 m.

Type: Ship. MMSI: 225392000.

Date/timePositionNaut miles runAvg speedWind from/ knotsBaromVisibWave heightAir tempDewpointWater temp
2017-Dec-10 17:23N 38°49' E 001°25'612.4
2017-Dec-10 16:55N 38°55' E 001°26'2 4.4
2017-Dec-10 16:26N 38°53' E 001°27'4 2.6
2017-Dec-10 14:52N 38°49' E 001°25'6 4.2
2017-Dec-10 13:27N 38°55' E 001°26'0 0.0
2017-Dec-10 12:47N 38°55' E 001°26'0 0.0
2017-Dec-10 12:28N 38°55' E 001°26'1 2.2
2017-Dec-10 11:58N 38°54' E 001°27'5 1.3
2017-Dec-10 08:21N 38°49' E 001°25'6 7.0
2017-Dec-10 07:33N 38°55' E 001°26'0 0.0
2017-Dec-09 18:48N 38°55' E 001°26'6 4.5
2017-Dec-09 17:22N 38°49' E 001°25'616.8
2017-Dec-09 16:59N 38°55' E 001°26'1 1.2
2017-Dec-09 16:30N 38°54' E 001°27'5 3.2
2017-Dec-09 14:50N 38°49' E 001°25'515.9
2017-Dec-09 14:30N 38°55' E 001°26'0 0.0
2017-Dec-09 13:58N 38°55' E 001°26'0 0.0
2017-Dec-09 13:28N 38°55' E 001°26'0 0.0
2017-Dec-09 13:00N 38°55' E 001°26'0 0.0
2017-Dec-09 12:30N 38°55' E 001°26'1 2.2
2017-Dec-09 11:57N 38°53' E 001°27'6 1.8
2017-Dec-09 08:25N 38°47' E 001°25'717.6
2017-Dec-09 08:00N 38°55' E 001°26'0 0.0
2017-Dec-09 07:29N 38°55' E 001°26'0 0.0
2017-Dec-09 06:59N 38°55' E 001°26'5 8.0
2017-Dec-09 06:20N 38°49' E 001°26'4 0.4
2017-Dec-08 19:42N 38°53' E 001°27'1 3.0
2017-Dec-08 19:14N 38°55' E 001°26'6 3.0
2017-Dec-08 17:20N 38°49' E 001°25'6 9.6
2017-Dec-08 16:46N 38°55' E 001°26'2 6.2
2017-Dec-08 16:27N 38°53' E 001°27'4 2.6
2017-Dec-08 14:52N 38°49' E 001°25'614.8
2017-Dec-08 14:29N 38°55' E 001°26'0 0.0
2017-Dec-08 13:46N 38°55' E 001°26'0 0.0
2017-Dec-08 12:34N 38°55' E 001°26'0 0.0
2017-Dec-08 12:13N 38°55' E 001°26'8 2.3
2017-Dec-08 08:30N 38°46' E 001°25'8 6.2
2017-Dec-08 07:09N 38°55' E 001°26'0 0.6
2017-Dec-08 06:45N 38°55' E 001°26'7 0.7
2017-Dec-07 19:25N 38°47' E 001°25'716.5
2017-Dec-07 18:58N 38°55' E 001°26'4 6.2
2017-Dec-07 18:20N 38°51' E 001°26'5 6.5
2017-Dec-07 17:32N 38°46' E 001°25'125.0
2017-Dec-07 17:29N 38°46' E 001°24'816.3
2017-Dec-07 16:59N 38°55' E 001°26'2 3.7
2017-Dec-07 16:27N 38°53' E 001°27'5 3.5
2017-Dec-07 14:57N 38°48' E 001°25'714.7
2017-Dec-07 14:29N 38°55' E 001°26'0 0.0
2017-Dec-07 13:58N 38°55' E 001°26'0 0.0
2017-Dec-07 13:29N 38°55' E 001°26'0 0.0
2017-Dec-07 12:58N 38°55' E 001°26'0 0.0
2017-Dec-07 12:27N 38°55' E 001°26'1 2.4
2017-Dec-07 11:58N 38°54' E 001°27'9 2.7
2017-Dec-07 08:32N 38°44' E 001°25'425.7
2017-Dec-07 08:23N 38°48' E 001°25'716.6
2017-Dec-07 07:59N 38°55' E 001°26'0 0.0
2017-Dec-07 07:29N 38°55' E 001°26'0 0.5
2017-Dec-07 06:59N 38°55' E 001°26'5 7.0
2017-Dec-07 06:19N 38°50' E 001°26'  
2017-Dec-04 08:11N 38°53' E 001°27'1 1.4
2017-Dec-04 07:18N 38°55' E 001°26'0 0.0
2017-Dec-03 19:26N 38°55' E 001°26'5 2.2
2017-Dec-03 17:20N 38°50' E 001°25'513.3
2017-Dec-03 16:59N 38°55' E 001°26'1 1.1
2017-Dec-03 16:30N 38°54' E 001°27'2 1.2
2017-Dec-03 14:44N 38°52' E 001°26'2 9.1
2017-Dec-03 14:29N 38°55' E 001°26'0 0.0
2017-Dec-03 14:00N 38°55' E 001°26'0 0.0
2017-Dec-03 13:29N 38°55' E 001°26'0 0.0
2017-Dec-03 12:56N 38°55' E 001°26'0 0.0
2017-Dec-03 12:30N 38°55' E 001°26'1 2.4
2017-Dec-03 11:59N 38°53' E 001°27'5 1.5
2017-Dec-03 08:21N 38°48' E 001°25'617.3
2017-Dec-03 07:59N 38°55' E 001°26'0 0.0
2017-Dec-03 07:29N 38°55' E 001°26'0 0.0
2017-Dec-03 07:00N 38°55' E 001°26'6 0.5
2017-Dec-02 19:29N 38°49' E 001°25'610.5
2017-Dec-02 18:52N 38°55' E 001°26'7 4.6
2017-Dec-02 17:22N 38°48' E 001°25'717.1
2017-Dec-02 16:58N 38°55' E 001°26'2 3.2
2017-Dec-02 16:27N 38°53' E 001°26'5 3.0
2017-Dec-02 14:53N 38°48' E 001°25'616.1
2017-Dec-02 14:29N 38°55' E 001°26'0 0.0
2017-Dec-02 13:59N 38°55' E 001°26'0 0.0
2017-Dec-02 13:28N 38°55' E 001°26'0 0.0
2017-Dec-02 13:00N 38°55' E 001°26'0 0.0
2017-Dec-02 12:29N 38°55' E 001°26'1 1.6
2017-Dec-02 12:00N 38°54' E 001°27'10 2.9
2017-Dec-02 08:37N 38°44' E 001°25'519.5
2017-Dec-02 08:22N 38°49' E 001°25'613.5
2017-Dec-02 07:56N 38°55' E 001°26'0 0.0
2017-Dec-02 07:28N 38°55' E 001°26'0 0.0
2017-Dec-02 06:59N 38°55' E 001°26'2 3.9
2017-Dec-02 06:25N 38°53' E 001°25'3 0.3
2017-Dec-01 17:58N 38°49' E 001°25'5 6.7
2017-Dec-01 17:10N 38°55' E 001°26'0 1.0
2017-Dec-01 17:00N 38°55' E 001°26'3 5.3
2017-Dec-01 16:24N 38°52' E 001°25'2 1.5
2017-Dec-01 14:50N 38°49' E 001°25'4 1.5
2017-Dec-01 11:59N 38°54' E 001°27'4 1.2
2017-Dec-01 08:21N 38°49' E 001°25'5 3.3
2017-Dec-01 06:43N 38°55' E 001°26'7 0.6
2017-Nov-30 19:23N 38°48' E 001°25'716.1
2017-Nov-30 18:59N 38°55' E 001°26'1 1.1
2017-Nov-30 18:30N 38°54' E 001°27'  

Dump ship's entire track history